createdAt,value
2022-12-19T00:00:37.860Z,56.26
2022-12-19T00:01:38.112Z,56.19
2022-12-19T00:02:37.965Z,55.64
2022-12-19T00:03:37.819Z,55.53
2022-12-19T00:04:37.816Z,55.95
2022-12-19T00:05:37.760Z,55.36
2022-12-19T00:06:37.887Z,55.39
2022-12-19T00:07:38.843Z,56.71
2022-12-19T00:08:37.743Z,55.26
2022-12-19T00:09:37.743Z,55.40
2022-12-19T00:10:37.811Z,56.11
2022-12-19T00:11:37.770Z,55.44
2022-12-19T00:12:37.762Z,55.58
2022-12-19T00:13:41.077Z,55.52
2022-12-19T00:14:37.760Z,55.60
2022-12-19T00:15:37.759Z,57.70
2022-12-19T00:16:37.842Z,56.22
2022-12-19T00:17:37.740Z,55.70
2022-12-19T00:18:37.809Z,55.70
2022-12-19T00:19:37.755Z,55.93
2022-12-19T00:20:37.760Z,55.79
2022-12-19T00:21:37.742Z,55.26
2022-12-19T00:22:37.789Z,55.20
2022-12-19T00:23:37.741Z,55.36
2022-12-19T00:24:37.774Z,55.15
2022-12-19T00:25:37.735Z,55.93
2022-12-19T00:26:37.733Z,55.17
2022-12-19T00:27:37.663Z,55.35
2022-12-19T00:28:37.733Z,55.18
2022-12-19T00:29:37.735Z,55.61
2022-12-19T00:30:37.682Z,55.89
2022-12-19T00:31:37.763Z,56.16
2022-12-19T00:32:37.707Z,55.19
2022-12-19T00:33:37.883Z,55.48
2022-12-19T00:34:38.767Z,55.27
2022-12-19T00:35:37.678Z,55.67
2022-12-19T00:36:37.682Z,55.51
2022-12-19T00:37:41.415Z,55.33
2022-12-19T00:38:38.553Z,55.47
2022-12-19T00:39:37.679Z,56.63
2022-12-19T00:40:37.637Z,55.58
2022-12-19T00:41:37.617Z,55.68
2022-12-19T00:42:37.647Z,55.44
2022-12-19T00:43:37.609Z,55.30
2022-12-19T00:44:37.632Z,55.70
2022-12-19T00:45:37.698Z,56.01
2022-12-19T00:46:37.566Z,56.41
2022-12-19T00:47:37.633Z,55.23
2022-12-19T00:48:37.537Z,55.48
2022-12-19T00:49:37.558Z,56.79
2022-12-19T00:50:37.556Z,55.35
2022-12-19T00:51:37.631Z,55.47
2022-12-19T00:52:37.517Z,55.29
2022-12-19T00:53:37.567Z,55.47
2022-12-19T00:54:37.567Z,55.37
2022-12-19T00:55:37.549Z,55.49
2022-12-19T00:56:38.499Z,55.84
2022-12-19T00:57:37.563Z,55.73
2022-12-19T00:58:39.081Z,55.81
2022-12-19T00:59:37.487Z,55.50
2022-12-19T01:00:38.260Z,56.00
2022-12-19T01:01:39.767Z,56.38
2022-12-19T01:02:37.564Z,56.92
2022-12-19T01:03:37.443Z,57.32
2022-12-19T01:04:41.491Z,57.23
2022-12-19T01:05:38.368Z,57.68
2022-12-19T01:06:37.413Z,58.89
2022-12-19T01:07:37.390Z,57.35
2022-12-19T01:08:37.368Z,57.05
2022-12-19T01:09:37.412Z,56.71
2022-12-19T01:10:37.361Z,56.91
2022-12-19T01:11:37.419Z,57.50
2022-12-19T01:12:37.448Z,56.27
2022-12-19T01:13:37.368Z,55.74
2022-12-19T01:14:37.390Z,55.71
2022-12-19T01:15:37.413Z,55.50
2022-12-19T01:16:37.471Z,55.69
2022-12-19T01:17:44.190Z,55.53
2022-12-19T01:18:38.334Z,55.44
2022-12-19T01:19:43.306Z,55.52
2022-12-19T01:20:39.360Z,56.49
2022-12-19T01:21:37.342Z,57.31
2022-12-19T01:22:37.367Z,55.96
2022-12-19T01:23:37.444Z,58.89
2022-12-19T01:24:37.331Z,57.01
2022-12-19T01:25:40.456Z,56.30
2022-12-19T01:26:38.378Z,55.99
2022-12-19T01:27:37.366Z,56.07
2022-12-19T01:28:37.332Z,57.07
2022-12-19T01:29:51.157Z,56.21
2022-12-19T01:30:38.302Z,55.92
2022-12-19T01:31:37.361Z,56.01
2022-12-19T01:32:37.293Z,56.65
2022-12-19T01:33:37.247Z,60.15
2022-12-19T01:34:37.280Z,58.34
2022-12-19T01:35:37.287Z,57.46
2022-12-19T01:36:40.143Z,57.58
2022-12-19T01:37:37.225Z,59.37
2022-12-19T01:38:37.262Z,59.56
2022-12-19T01:39:37.237Z,58.28
2022-12-19T01:40:37.269Z,58.72
2022-12-19T01:41:37.392Z,58.45
2022-12-19T01:42:37.281Z,58.37
2022-12-19T01:43:37.214Z,59.60
2022-12-19T01:44:37.170Z,58.31
2022-12-19T01:45:43.525Z,57.73
2022-12-19T01:46:39.377Z,60.01
2022-12-19T01:47:37.203Z,56.05
2022-12-19T01:48:37.238Z,56.61
2022-12-19T01:49:37.183Z,57.48
2022-12-19T01:50:37.215Z,55.99
2022-12-19T01:51:37.240Z,56.17
2022-12-19T01:52:37.213Z,56.71
2022-12-19T01:53:37.956Z,58.32
2022-12-19T01:54:38.158Z,56.68
2022-12-19T01:55:37.085Z,57.59
2022-12-19T01:56:38.819Z,56.77
2022-12-19T01:57:37.017Z,55.87
2022-12-19T01:58:37.016Z,55.95
2022-12-19T01:59:36.997Z,55.99
2022-12-19T02:00:37.011Z,55.96
2022-12-19T02:01:49.549Z,56.15
2022-12-19T02:02:38.195Z,55.75
2022-12-19T02:03:37.008Z,56.37
2022-12-19T02:04:36.957Z,55.92
2022-12-19T02:05:37.017Z,56.42
2022-12-19T02:06:37.743Z,57.73
2022-12-19T02:07:36.986Z,57.97
2022-12-19T02:08:36.973Z,56.25
2022-12-19T02:09:36.958Z,55.95
2022-12-19T02:10:36.997Z,56.03
2022-12-19T02:11:37.045Z,56.06
2022-12-19T02:12:37.051Z,56.59
2022-12-19T02:13:37.052Z,56.32
2022-12-19T02:14:36.901Z,56.87
2022-12-19T02:15:37.106Z,58.81
2022-12-19T02:16:37.120Z,56.68
2022-12-19T02:17:37.003Z,55.94
2022-12-19T02:18:37.046Z,56.30
2022-12-19T02:19:36.957Z,56.22
2022-12-19T02:20:37.012Z,55.92
2022-12-19T02:21:36.985Z,56.13
2022-12-19T02:22:36.961Z,56.35
2022-12-19T02:23:36.982Z,55.97
2022-12-19T02:24:36.937Z,55.90
2022-12-19T02:25:36.935Z,57.00
2022-12-19T02:26:36.932Z,56.07
2022-12-19T02:27:40.080Z,56.45
2022-12-19T02:28:37.986Z,56.56
2022-12-19T02:29:36.873Z,57.69
2022-12-19T02:30:36.897Z,56.52
2022-12-19T02:31:36.940Z,57.37
2022-12-19T02:32:36.862Z,56.44
2022-12-19T02:33:36.918Z,56.01
2022-12-19T02:34:40.040Z,56.13
2022-12-19T02:35:38.844Z,56.35
2022-12-19T02:36:38.812Z,55.88
2022-12-19T02:37:36.906Z,55.96
2022-12-19T02:38:36.858Z,56.14
2022-12-19T02:39:36.953Z,57.49
2022-12-19T02:40:36.831Z,57.41
2022-12-19T02:41:36.826Z,56.92
2022-12-19T02:42:36.816Z,56.29
2022-12-19T02:43:36.791Z,56.15
2022-12-19T02:44:36.827Z,56.17
2022-12-19T02:45:36.925Z,56.53
2022-12-19T02:46:36.838Z,58.80
2022-12-19T02:47:36.795Z,56.48
2022-12-19T02:48:36.792Z,58.25
2022-12-19T02:49:36.745Z,56.37
2022-12-19T02:50:36.886Z,56.19
2022-12-19T02:51:36.778Z,55.80
2022-12-19T02:52:36.785Z,55.90
2022-12-19T02:53:36.732Z,56.00
2022-12-19T02:54:36.710Z,57.10
2022-12-19T02:55:36.727Z,56.35
2022-12-19T02:56:36.816Z,57.24
2022-12-19T02:57:36.716Z,55.82
2022-12-19T02:58:36.742Z,56.55
2022-12-19T02:59:36.718Z,57.00
2022-12-19T03:00:36.762Z,55.85
2022-12-19T03:01:36.965Z,56.36
2022-12-19T03:02:36.840Z,56.28
2022-12-19T03:03:36.779Z,57.07
2022-12-19T03:04:36.663Z,56.00
2022-12-19T03:05:36.666Z,57.82
2022-12-19T03:06:36.674Z,57.31
2022-12-19T03:07:36.675Z,56.74
2022-12-19T03:08:36.651Z,56.73
2022-12-19T03:09:36.642Z,56.35
2022-12-19T03:10:36.662Z,56.47
2022-12-19T03:11:36.522Z,57.84
2022-12-19T03:12:36.568Z,56.35
2022-12-19T03:13:36.533Z,56.03
2022-12-19T03:14:36.584Z,56.13
2022-12-19T03:15:36.533Z,55.74
2022-12-19T03:16:36.585Z,55.98
2022-12-19T03:17:36.512Z,56.82
2022-12-19T03:18:36.605Z,57.33
2022-12-19T03:19:36.600Z,56.06
2022-12-19T03:20:36.497Z,55.72
2022-12-19T03:21:36.599Z,55.89
2022-12-19T03:22:36.614Z,55.61
2022-12-19T03:23:36.638Z,55.81
2022-12-19T03:24:36.526Z,55.69
2022-12-19T03:25:36.577Z,56.16
2022-12-19T03:26:36.545Z,59.02
2022-12-19T03:27:36.631Z,57.23
2022-12-19T03:28:36.559Z,56.92
2022-12-19T03:29:36.545Z,56.00
2022-12-19T03:30:36.517Z,56.87
2022-12-19T03:31:36.550Z,57.31
2022-12-19T03:32:36.481Z,56.49
2022-12-19T03:33:36.529Z,55.96
2022-12-19T03:34:36.502Z,56.79
2022-12-19T03:35:36.449Z,56.75
2022-12-19T03:36:36.471Z,57.34
2022-12-19T03:37:36.496Z,58.18
2022-12-19T03:38:36.582Z,59.25
2022-12-19T03:39:36.511Z,58.59
2022-12-19T03:40:36.488Z,56.48
2022-12-19T03:41:36.455Z,59.17
2022-12-19T03:42:36.434Z,58.93
2022-12-19T03:43:36.406Z,58.34
2022-12-19T03:44:36.418Z,57.95
2022-12-19T03:45:36.438Z,58.41
2022-12-19T03:46:36.437Z,57.08
2022-12-19T03:47:36.477Z,58.40
2022-12-19T03:48:36.416Z,58.22
2022-12-19T03:49:36.416Z,57.99
2022-12-19T03:50:36.446Z,57.53
2022-12-19T03:51:36.396Z,57.39
2022-12-19T03:52:36.424Z,56.03
2022-12-19T03:53:36.375Z,56.56
2022-12-19T03:54:36.424Z,57.40
2022-12-19T03:55:36.249Z,56.29
2022-12-19T03:56:36.301Z,57.68
2022-12-19T03:57:36.268Z,57.93
2022-12-19T03:58:36.294Z,56.70
2022-12-19T03:59:36.318Z,56.11
2022-12-19T04:00:36.338Z,56.50
2022-12-19T04:01:36.308Z,56.89
2022-12-19T04:02:36.754Z,57.46
2022-12-19T04:03:36.317Z,59.07
2022-12-19T04:04:36.209Z,57.29
2022-12-19T04:05:36.232Z,56.95
2022-12-19T04:06:36.247Z,57.19
2022-12-19T04:07:36.231Z,57.44
2022-12-19T04:08:36.277Z,58.39
2022-12-19T04:09:36.301Z,58.86
2022-12-19T04:10:36.286Z,59.06
2022-12-19T04:11:36.257Z,58.00
2022-12-19T04:12:36.322Z,58.69
2022-12-19T04:13:36.283Z,59.76
2022-12-19T04:14:36.232Z,61.09
2022-12-19T04:15:36.316Z,61.87
2022-12-19T04:16:36.242Z,59.00
2022-12-19T04:17:36.196Z,57.94
2022-12-19T04:18:36.259Z,57.69
2022-12-19T04:19:39.872Z,58.98
2022-12-19T04:20:38.124Z,58.81
2022-12-19T04:21:36.169Z,59.71
2022-12-19T04:22:36.150Z,60.27
2022-12-19T04:23:36.181Z,60.77
2022-12-19T04:24:36.129Z,59.56
2022-12-19T04:25:36.090Z,59.53
2022-12-19T04:26:36.169Z,58.31
2022-12-19T04:27:36.160Z,60.44
2022-12-19T04:28:36.143Z,60.79
2022-12-19T04:29:36.160Z,60.10
2022-12-19T04:30:36.776Z,58.89
2022-12-19T04:31:36.174Z,59.13
2022-12-19T04:32:36.139Z,58.67
2022-12-19T04:33:36.097Z,58.19
2022-12-19T04:34:40.206Z,58.42
2022-12-19T04:35:38.120Z,58.76
2022-12-19T04:36:36.067Z,59.00
2022-12-19T04:37:36.086Z,59.64
2022-12-19T04:38:36.069Z,59.00
2022-12-19T04:39:36.080Z,57.92
2022-12-19T04:40:40.814Z,58.73
2022-12-19T04:41:38.015Z,60.61
2022-12-19T04:42:36.118Z,58.32
2022-12-19T04:43:36.040Z,58.05
2022-12-19T04:44:36.036Z,59.09
2022-12-19T04:45:36.032Z,58.43
2022-12-19T04:46:36.037Z,58.14
2022-12-19T04:47:36.010Z,57.39
2022-12-19T04:48:35.970Z,58.62
2022-12-19T04:49:35.974Z,59.76
2022-12-19T04:50:35.958Z,59.08
2022-12-19T04:51:36.012Z,59.22
2022-12-19T04:52:36.031Z,60.79
2022-12-19T04:53:35.959Z,58.85
2022-12-19T04:54:35.966Z,59.61
2022-12-19T04:55:35.956Z,59.26
2022-12-19T04:56:35.987Z,59.48
2022-12-19T04:57:35.836Z,59.24
2022-12-19T04:58:35.899Z,59.10
2022-12-19T04:59:35.872Z,58.25
2022-12-19T05:00:35.839Z,57.79
2022-12-19T05:01:35.961Z,58.91
2022-12-19T05:02:36.053Z,59.93
2022-12-19T05:03:35.929Z,58.61
2022-12-19T05:04:35.825Z,57.01
2022-12-19T05:05:35.812Z,57.30
2022-12-19T05:06:35.826Z,58.97
2022-12-19T05:07:36.396Z,57.96
2022-12-19T05:08:35.891Z,58.30
2022-12-19T05:09:35.852Z,57.13
2022-12-19T05:10:35.859Z,57.63
2022-12-19T05:11:35.827Z,57.87
2022-12-19T05:12:35.832Z,58.92
2022-12-19T05:13:35.831Z,58.94
2022-12-19T05:14:35.880Z,58.89
2022-12-19T05:15:35.871Z,58.85
2022-12-19T05:16:35.777Z,58.86
2022-12-19T05:17:35.779Z,57.74
2022-12-19T05:18:35.835Z,59.28
2022-12-19T05:19:35.756Z,60.20
2022-12-19T05:20:35.793Z,61.95
2022-12-19T05:21:35.767Z,59.92
2022-12-19T05:22:35.736Z,60.79
2022-12-19T05:23:35.781Z,58.92
2022-12-19T05:24:35.799Z,59.50
2022-12-19T05:25:35.751Z,58.03
2022-12-19T05:26:35.692Z,59.92
2022-12-19T05:27:35.803Z,59.09
2022-12-19T05:28:35.723Z,58.47
2022-12-19T05:29:35.831Z,63.71
2022-12-19T05:30:35.764Z,69.48
2022-12-19T05:31:35.794Z,70.70
2022-12-19T05:32:35.724Z,73.88
2022-12-19T05:33:35.728Z,61.53
2022-12-19T05:34:35.673Z,59.97
2022-12-19T05:35:35.696Z,60.05
2022-12-19T05:36:35.645Z,59.65
2022-12-19T05:37:35.648Z,66.04
2022-12-19T05:38:35.672Z,77.37
2022-12-19T05:39:35.623Z,63.18
2022-12-19T05:40:35.647Z,58.42
2022-12-19T05:41:35.606Z,59.33
2022-12-19T05:42:35.624Z,58.87
2022-12-19T05:43:35.603Z,59.07
2022-12-19T05:44:35.579Z,58.06
2022-12-19T05:45:35.639Z,57.90
2022-12-19T05:46:35.784Z,58.22
2022-12-19T05:47:37.900Z,59.50
2022-12-19T05:48:35.621Z,60.75
2022-12-19T05:49:35.557Z,58.78
2022-12-19T05:50:35.466Z,59.98
2022-12-19T05:51:35.539Z,59.11
2022-12-19T05:52:35.530Z,58.73
2022-12-19T05:53:35.573Z,59.33
2022-12-19T05:54:35.451Z,59.66
2022-12-19T05:55:35.500Z,58.34
2022-12-19T05:56:35.436Z,59.94
2022-12-19T05:57:35.476Z,60.86
2022-12-19T05:58:35.455Z,59.83
2022-12-19T05:59:35.410Z,59.28
2022-12-19T06:00:35.470Z,59.71
2022-12-19T06:01:35.462Z,58.99
2022-12-19T06:02:35.805Z,60.73
2022-12-19T06:03:35.525Z,60.48
2022-12-19T06:04:35.463Z,58.86
2022-12-19T06:05:35.448Z,58.86
2022-12-19T06:06:35.370Z,59.55
2022-12-19T06:07:35.513Z,61.61
2022-12-19T06:08:35.456Z,59.63
2022-12-19T06:09:35.453Z,58.30
2022-12-19T06:10:35.420Z,59.88
2022-12-19T06:11:35.440Z,59.39
2022-12-19T06:12:35.427Z,57.72
2022-12-19T06:13:36.005Z,60.45
2022-12-19T06:14:35.410Z,58.11
2022-12-19T06:15:35.471Z,58.00
2022-12-19T06:16:35.426Z,59.06
2022-12-19T06:17:35.433Z,59.21
2022-12-19T06:18:37.459Z,59.96
2022-12-19T06:19:36.447Z,60.29
2022-12-19T06:20:35.360Z,59.78
2022-12-19T06:21:35.340Z,59.52
2022-12-19T06:22:35.355Z,58.61
2022-12-19T06:23:35.363Z,58.42
2022-12-19T06:24:35.360Z,58.87
2022-12-19T06:25:35.342Z,60.19
2022-12-19T06:26:35.299Z,58.68
2022-12-19T06:27:35.311Z,59.23
2022-12-19T06:28:35.308Z,59.29
2022-12-19T06:29:35.322Z,59.07
2022-12-19T06:30:35.295Z,59.90
2022-12-19T06:31:35.478Z,58.87
2022-12-19T06:32:38.090Z,60.29
2022-12-19T06:33:36.261Z,59.90
2022-12-19T06:35:04.619Z,60.20
2022-12-19T06:35:37.332Z,59.45
2022-12-19T06:36:35.234Z,59.73
2022-12-19T06:37:38.933Z,60.31
2022-12-19T06:38:35.273Z,59.53
2022-12-19T06:39:35.222Z,59.68
2022-12-19T06:40:35.337Z,58.98
2022-12-19T06:41:35.215Z,58.09
2022-12-19T06:42:35.263Z,58.62
2022-12-19T06:44:06.510Z,59.80
2022-12-19T06:44:36.141Z,59.49
2022-12-19T06:45:35.247Z,59.18
2022-12-19T06:46:35.346Z,59.67
2022-12-19T06:47:35.174Z,60.11
2022-12-19T06:48:35.166Z,61.23
2022-12-19T06:49:35.194Z,58.77
2022-12-19T06:50:35.253Z,58.97
2022-12-19T06:51:35.223Z,57.27
2022-12-19T06:52:35.150Z,58.33
2022-12-19T06:53:35.147Z,60.49
2022-12-19T06:54:35.116Z,59.90
2022-12-19T06:55:35.144Z,64.69
2022-12-19T06:56:35.124Z,61.47
2022-12-19T06:57:35.170Z,61.34
2022-12-19T06:58:35.135Z,60.74
2022-12-19T06:59:35.076Z,61.76
2022-12-19T07:00:35.109Z,61.41
2022-12-19T07:01:35.171Z,62.27
2022-12-19T07:02:35.138Z,61.61
2022-12-19T07:03:35.017Z,60.77
2022-12-19T07:04:34.993Z,61.53
2022-12-19T07:05:34.970Z,61.32
2022-12-19T07:06:35.036Z,61.26
2022-12-19T07:07:35.144Z,62.08
2022-12-19T07:08:34.985Z,62.38
2022-12-19T07:09:34.945Z,61.33
2022-12-19T07:10:35.104Z,62.02
2022-12-19T07:11:35.024Z,61.87
2022-12-19T07:12:34.998Z,61.37
2022-12-19T07:13:35.051Z,61.05
2022-12-19T07:14:35.008Z,61.46
2022-12-19T07:15:34.990Z,60.50
2022-12-19T07:16:35.060Z,61.36
2022-12-19T07:17:35.027Z,62.23
2022-12-19T07:18:35.350Z,60.84
2022-12-19T07:19:34.967Z,59.32
2022-12-19T07:20:34.959Z,59.71
2022-12-19T07:21:34.959Z,60.13
2022-12-19T07:22:35.027Z,61.37
2022-12-19T07:23:34.932Z,59.67
2022-12-19T07:24:35.046Z,58.53
2022-12-19T07:25:34.926Z,59.35
2022-12-19T07:26:34.924Z,60.95
2022-12-19T07:27:36.037Z,58.56
2022-12-19T07:28:35.915Z,59.14
2022-12-19T07:29:34.933Z,59.00
2022-12-19T07:34:18.976Z,59.16
2022-12-19T07:35:17.997Z,58.80
2022-12-19T07:36:17.947Z,62.13
2022-12-19T07:37:17.985Z,60.08
2022-12-19T07:38:17.980Z,60.65
2022-12-19T07:39:17.924Z,61.58
2022-12-19T07:40:17.974Z,60.78
2022-12-19T07:41:17.910Z,58.33
2022-12-19T07:42:17.910Z,58.28
2022-12-19T07:43:17.884Z,58.75
2022-12-19T07:44:17.944Z,59.10
2022-12-19T07:45:17.933Z,58.70
2022-12-19T07:46:18.036Z,59.58
2022-12-19T07:47:17.907Z,59.05
2022-12-19T07:48:18.756Z,60.10
2022-12-19T07:49:22.448Z,61.08
2022-12-19T07:50:18.897Z,59.25
2022-12-19T07:51:17.982Z,59.12
2022-12-19T07:52:18.811Z,61.02
2022-12-19T07:53:17.925Z,60.75
2022-12-19T07:54:18.004Z,59.25
2022-12-19T07:55:17.918Z,59.07
2022-12-19T07:56:17.915Z,57.65
2022-12-19T07:57:17.940Z,59.42
2022-12-19T07:58:17.880Z,59.08
2022-12-19T07:59:17.897Z,60.00
2022-12-19T08:00:17.880Z,60.24
2022-12-19T08:01:17.935Z,59.08
2022-12-19T08:02:17.981Z,59.43
2022-12-19T08:03:17.876Z,59.04
2022-12-19T08:04:17.860Z,59.77
2022-12-19T08:05:17.869Z,58.45
2022-12-19T08:06:17.847Z,58.09
2022-12-19T08:07:17.877Z,60.28
2022-12-19T08:08:17.869Z,58.25
2022-12-19T08:09:17.828Z,59.19
2022-12-19T08:10:17.892Z,59.38
2022-12-19T08:11:17.842Z,59.28
2022-12-19T08:12:17.834Z,58.94
2022-12-19T08:13:17.870Z,58.28
2022-12-19T08:14:17.787Z,57.79
2022-12-19T08:15:17.828Z,57.29
2022-12-19T08:16:17.847Z,57.58
2022-12-19T08:17:20.648Z,59.11
2022-12-19T08:18:18.805Z,59.40
2022-12-19T08:19:17.746Z,59.52
2022-12-19T08:20:17.735Z,58.77
2022-12-19T08:21:17.750Z,60.26
2022-12-19T08:22:17.779Z,58.99
2022-12-19T08:23:17.762Z,59.03
2022-12-19T08:24:17.979Z,59.24
2022-12-19T08:25:17.733Z,59.55
2022-12-19T08:26:17.812Z,58.08
2022-12-19T08:27:17.720Z,57.57
2022-12-19T08:28:17.690Z,58.49
2022-12-19T08:29:17.705Z,59.97
2022-12-19T08:30:17.607Z,60.14
2022-12-19T08:31:17.652Z,60.57
2022-12-19T08:32:21.229Z,61.62
2022-12-19T08:33:18.592Z,59.91
2022-12-19T08:34:17.606Z,58.73
2022-12-19T08:35:17.646Z,58.87
2022-12-19T08:36:17.559Z,59.61
2022-12-19T08:37:17.657Z,60.26
2022-12-19T08:38:17.849Z,62.11
2022-12-19T08:39:17.649Z,61.49
2022-12-19T08:40:17.725Z,60.07
2022-12-19T08:41:17.620Z,60.93
2022-12-19T08:42:17.742Z,60.96
2022-12-19T08:43:17.624Z,60.66
2022-12-19T08:44:17.618Z,60.07
2022-12-19T08:45:17.615Z,59.09
2022-12-19T08:46:17.701Z,59.32
2022-12-19T08:47:17.607Z,59.25
2022-12-19T08:48:17.580Z,59.73
2022-12-19T08:49:17.559Z,59.05
2022-12-19T08:50:17.575Z,58.26
2022-12-19T08:51:17.635Z,61.12
2022-12-19T08:52:17.708Z,60.48
2022-12-19T08:53:22.748Z,58.93
2022-12-19T08:54:19.468Z,59.91
2022-12-19T08:55:17.571Z,60.51
2022-12-19T08:56:17.596Z,59.79
2022-12-19T08:57:17.605Z,59.53
2022-12-19T08:58:17.597Z,60.59
2022-12-19T08:59:24.183Z,59.31
2022-12-19T09:00:18.490Z,57.07
2022-12-19T09:01:17.515Z,57.29
2022-12-19T09:02:17.763Z,61.17
2022-12-19T09:03:18.810Z,59.33
2022-12-19T09:05:57.212Z,59.44
2022-12-19T09:05:57.342Z,60.50
2022-12-19T09:06:18.851Z,60.94
2022-12-19T09:07:18.496Z,58.44
2022-12-19T09:08:17.498Z,59.15
2022-12-19T09:09:17.504Z,59.98
2022-12-19T09:10:18.451Z,59.22
2022-12-19T09:11:17.434Z,60.39
2022-12-19T09:12:17.405Z,58.93
2022-12-19T09:13:17.523Z,60.05
2022-12-19T09:14:21.268Z,59.78
2022-12-19T09:15:17.440Z,59.57
2022-12-19T09:16:17.465Z,58.78
2022-12-19T09:17:17.604Z,59.32
2022-12-19T09:18:17.393Z,59.72
2022-12-19T09:19:17.341Z,60.14
2022-12-19T09:20:22.942Z,60.19
2022-12-19T09:21:19.310Z,60.27
2022-12-19T09:22:17.323Z,59.47
2022-12-19T09:23:17.314Z,59.95
2022-12-19T09:24:17.372Z,58.04
2022-12-19T09:25:17.266Z,58.75
2022-12-19T09:26:17.283Z,60.40
2022-12-19T09:27:17.355Z,58.37
2022-12-19T09:28:27.363Z,58.93
2022-12-19T09:29:21.549Z,59.75
2022-12-19T09:30:17.316Z,60.84
2022-12-19T09:31:17.375Z,59.80
2022-12-19T09:32:17.365Z,59.58
2022-12-19T09:33:17.303Z,60.00
2022-12-19T09:34:17.398Z,59.74
2022-12-19T09:35:17.287Z,59.74
2022-12-19T09:36:17.329Z,59.49
2022-12-19T09:37:17.942Z,59.79
2022-12-19T09:38:18.469Z,60.61
2022-12-19T09:39:17.273Z,59.80
2022-12-19T09:40:17.310Z,59.32
2022-12-19T09:41:18.070Z,59.64
2022-12-19T09:42:17.271Z,59.59
2022-12-19T09:43:17.261Z,61.18
2022-12-19T09:44:17.215Z,60.20
2022-12-19T09:45:19.041Z,61.14
2022-12-19T09:46:18.379Z,61.69
2022-12-19T09:47:17.266Z,61.48
2022-12-19T09:48:23.691Z,60.53
2022-12-19T09:49:18.238Z,59.21
2022-12-19T09:50:17.208Z,60.26
2022-12-19T09:51:17.218Z,57.41
2022-12-19T09:52:17.229Z,56.97
2022-12-19T09:53:17.279Z,56.61
2022-12-19T09:54:18.170Z,59.07
2022-12-19T09:55:17.414Z,61.68
2022-12-19T09:56:17.150Z,59.44
2022-12-19T09:57:17.328Z,58.41
2022-12-19T09:58:17.255Z,56.11
2022-12-19T09:59:17.190Z,55.06
2022-12-19T10:00:17.195Z,54.95
2022-12-19T10:01:17.535Z,58.92
2022-12-19T10:02:17.533Z,56.83
2022-12-19T10:03:17.371Z,55.94
2022-12-19T10:04:17.126Z,60.02
2022-12-19T10:05:28.352Z,60.59
2022-12-19T10:07:10.958Z,59.47
2022-12-19T10:07:35.381Z,59.30
2022-12-19T10:08:18.993Z,57.50
2022-12-19T10:10:29.285Z,60.06
2022-12-19T10:12:35.270Z,58.87
2022-12-19T10:12:38.374Z,60.90
2022-12-19T10:12:44.271Z,62.22
2022-12-19T10:13:18.034Z,60.11
2022-12-19T10:14:17.072Z,59.00
2022-12-19T10:15:17.048Z,58.71
2022-12-19T10:16:17.176Z,58.73
2022-12-19T10:17:25.303Z,61.29
2022-12-19T10:18:19.223Z,60.51
2022-12-19T10:19:17.127Z,60.25
2022-12-19T10:20:17.102Z,58.50
2022-12-19T10:21:16.985Z,59.88
2022-12-19T10:22:19.152Z,59.07
2022-12-19T10:23:18.015Z,56.84
2022-12-19T10:24:16.992Z,58.27
2022-12-19T10:25:16.920Z,58.97
2022-12-19T10:26:16.979Z,57.34
2022-12-19T10:27:16.867Z,57.61
2022-12-19T10:28:16.873Z,58.57
2022-12-19T10:29:17.072Z,58.92
2022-12-19T10:30:16.862Z,57.78
2022-12-19T10:31:21.566Z,58.23
2022-12-19T10:32:18.907Z,58.00
2022-12-19T10:33:20.157Z,59.33
2022-12-19T10:34:18.129Z,58.70
2022-12-19T10:35:16.789Z,59.44
2022-12-19T10:36:16.857Z,56.43
2022-12-19T10:37:26.577Z,57.77
2022-12-19T10:38:17.787Z,56.73
2022-12-19T10:39:16.908Z,59.35
2022-12-19T10:40:22.240Z,55.54
2022-12-19T10:41:17.865Z,57.04
2022-12-19T10:42:16.861Z,59.19
2022-12-19T10:43:23.116Z,59.47
2022-12-19T10:44:18.746Z,58.89
2022-12-19T10:45:17.095Z,59.69
2022-12-19T10:46:16.882Z,58.83
2022-12-19T10:47:16.885Z,58.60
2022-12-19T10:48:16.808Z,58.56
2022-12-19T10:49:16.859Z,59.25
2022-12-19T10:50:16.867Z,60.02
2022-12-19T10:51:16.841Z,59.20
2022-12-19T10:52:16.801Z,60.17
2022-12-19T10:53:16.803Z,58.94
2022-12-19T10:54:16.749Z,59.42
2022-12-19T10:55:16.770Z,59.29
2022-12-19T10:56:16.788Z,60.23
2022-12-19T10:57:16.773Z,60.18
2022-12-19T10:58:16.861Z,58.97
2022-12-19T10:59:16.728Z,59.52
2022-12-19T11:00:16.803Z,58.05
2022-12-19T11:01:16.802Z,58.07
2022-12-19T11:02:16.922Z,58.68
2022-12-19T11:03:19.021Z,57.17
2022-12-19T11:04:16.742Z,56.33
2022-12-19T11:05:16.747Z,56.61
2022-12-19T11:06:17.207Z,58.88
2022-12-19T11:07:16.906Z,59.79
2022-12-19T11:08:16.671Z,57.72
2022-12-19T11:09:16.644Z,58.27
2022-12-19T11:11:10.308Z,58.78
2022-12-19T11:12:45.167Z,58.51
2022-12-19T11:15:39.577Z,56.74
2022-12-19T11:17:30.557Z,57.89
2022-12-19T11:19:16.087Z,57.28
2022-12-19T11:21:07.789Z,58.57
2022-12-19T11:21:56.213Z,60.15
2022-12-19T11:24:17.348Z,58.48
2022-12-19T11:27:34.406Z,58.62
2022-12-19T11:29:34.397Z,58.66
2022-12-19T11:29:40.454Z,57.69
2022-12-19T11:29:40.715Z,57.14
2022-12-19T11:29:44.436Z,57.47
2022-12-19T11:29:44.576Z,59.08
2022-12-19T11:30:36.760Z,56.37
2022-12-19T11:30:44.123Z,58.12
2022-12-19T11:30:45.505Z,59.72
2022-12-19T11:30:46.259Z,58.69
2022-12-19T11:30:47.444Z,57.22
2022-12-19T11:31:50.907Z,57.95
2022-12-19T11:31:58.413Z,55.08
2022-12-19T11:32:47.090Z,57.81
2022-12-19T11:33:18.796Z,58.58
2022-12-19T11:34:16.878Z,57.76
2022-12-19T11:35:16.566Z,58.01
2022-12-19T11:36:16.991Z,59.78
2022-12-19T11:37:17.054Z,59.64
2022-12-19T11:38:16.573Z,61.48
2022-12-19T11:39:17.442Z,59.88
2022-12-19T11:40:16.432Z,59.15
2022-12-19T11:41:16.687Z,57.47
2022-12-19T11:42:16.457Z,57.02
2022-12-19T11:44:18.573Z,55.45
2022-12-19T11:45:16.603Z,58.90
2022-12-19T11:46:21.817Z,56.77
2022-12-19T11:47:18.485Z,57.38
2022-12-19T11:48:16.445Z,58.10
2022-12-19T11:49:16.402Z,57.08
2022-12-19T11:50:16.493Z,57.28
2022-12-19T11:51:16.487Z,57.03
2022-12-19T11:52:54.135Z,58.63
2022-12-19T11:53:19.383Z,59.03
2022-12-19T11:54:17.530Z,59.40
2022-12-19T11:55:16.452Z,59.52
2022-12-19T11:56:17.748Z,58.87
2022-12-19T11:57:16.611Z,59.31
2022-12-19T11:58:16.585Z,57.66
2022-12-19T11:59:17.875Z,58.82
2022-12-19T12:00:17.256Z,59.22
2022-12-19T12:01:16.703Z,57.46
2022-12-19T12:02:16.952Z,56.25
2022-12-19T12:03:16.490Z,57.79
2022-12-19T12:04:16.653Z,58.41
2022-12-19T12:05:16.409Z,59.05
2022-12-19T12:06:16.402Z,58.68
2022-12-19T12:07:28.353Z,60.56
2022-12-19T12:09:24.378Z,61.06
2022-12-19T12:12:21.588Z,61.04
2022-12-19T12:15:05.239Z,58.08
2022-12-19T12:16:17.746Z,57.87
2022-12-19T12:17:49.641Z,60.02
2022-12-19T12:20:18.497Z,59.62
2022-12-19T12:24:07.653Z,60.45
2022-12-19T12:24:27.321Z,59.78
2022-12-19T12:26:36.113Z,60.05
2022-12-19T12:27:18.916Z,62.61
2022-12-19T12:31:05.338Z,60.53
2022-12-19T12:31:08.955Z,61.48
2022-12-19T12:31:09.930Z,60.51
2022-12-19T12:31:20.457Z,59.45
2022-12-19T12:31:27.090Z,60.06
2022-12-19T12:31:38.256Z,61.56
2022-12-19T12:31:39.144Z,61.57
2022-12-19T12:31:44.393Z,59.68
2022-12-19T12:31:46.587Z,59.49
2022-12-19T12:31:50.782Z,59.43
2022-12-19T12:31:52.736Z,58.96
2022-12-19T12:31:58.824Z,59.72
2022-12-19T12:35:11.058Z,61.45
2022-12-19T12:35:17.389Z,61.22
2022-12-19T12:35:30.228Z,58.51
2022-12-19T12:35:33.213Z,60.25
2022-12-19T12:35:33.433Z,59.35
2022-12-19T12:37:52.552Z,60.73
2022-12-19T12:38:27.524Z,60.04
2022-12-19T12:39:22.745Z,61.30
2022-12-19T12:40:23.740Z,62.05
2022-12-19T12:41:17.309Z,60.69
2022-12-19T12:42:16.437Z,62.14
2022-12-19T12:43:16.152Z,60.76
2022-12-19T12:44:16.435Z,59.73
2022-12-19T12:45:16.005Z,59.29
2022-12-19T12:46:16.035Z,60.66
2022-12-19T12:47:16.062Z,62.07
2022-12-19T12:48:16.361Z,59.31
2022-12-19T12:49:16.198Z,60.27
2022-12-19T12:50:15.963Z,61.32
2022-12-19T12:51:16.330Z,60.00
2022-12-19T12:52:16.129Z,58.03
2022-12-19T12:53:16.030Z,58.38
2022-12-19T12:54:16.166Z,58.35
2022-12-19T12:55:16.171Z,59.87
2022-12-19T12:56:16.031Z,58.66
2022-12-19T12:57:16.424Z,58.93
2022-12-19T12:58:20.854Z,60.65
2022-12-19T12:59:18.305Z,60.42
2022-12-19T13:00:16.789Z,60.21